KBGM/BGM METAR and TAF weather

Enter ICAO airport designator
Station Type Date Time Source
KBGM METAR 2021/01/27 12:53 UTC NOAA

KBGM 271253Z 34010KT 10SM OVC006 M05/M06 A2998 RMK AO2 SNE1157 CIG 005V010 SLP174 P0000 T10501061


Station Type Date Time Source
KBGM Decoded METAR 2021/01/27 12:53 UTC NOAA

BINGHAMTON REGIONAL AIRPORT, NY, United States (KBGM) 42-12N 75-59W 492M
Jan 27, 2021 - 07:53 AM EST / 2021.01.27 1253 UTC
Wind: from the NNW (340 degrees) at 12 MPH (10 KT):0
Visibility: 10 mile(s):0
Sky conditions: overcast
Precipitation last hour: A trace
Temperature: 23.0 F (-5.0 C)
Windchill: 12 F (-11 C):1
Dew Point: 21.0 F (-6.1 C)
Relative Humidity: 91%
Pressure (altimeter): 29.98 in. Hg (1015 hPa)
ob: KBGM 271253Z 34010KT 10SM OVC006 M05/M06 A2998 RMK AO2 SNE1157 CIG 005V010 SLP174 P0000 T10501061
cycle: 13

Station Type Date Time Source
KBGM TAF 2021/01/27 12:27 UTC NOAA

TAF KBGM 271125Z 2712/2812 33012KT 6SM -SHSN BR OVC009
FM271400 32010G18KT P6SM OVC010
FM272000 32010KT P6SM OVC013

Example: see airport list